sensor_id;sensor_type;location;lat;lon;timestamp;temperature;humidity
20208;DHT22;10263;48.716;8.760;2023-08-17T00:00:51;17.60;99.90
20208;DHT22;10263;48.716;8.760;2023-08-17T00:03:17;17.60;99.90
20208;DHT22;10263;48.716;8.760;2023-08-17T00:05:46;17.60;99.90
20208;DHT22;10263;48.716;8.760;2023-08-17T00:08:12;17.60;99.90
20208;DHT22;10263;48.716;8.760;2023-08-17T00:10:39;17.60;99.90
20208;DHT22;10263;48.716;8.760;2023-08-17T00:13:06;17.60;99.90
20208;DHT22;10263;48.716;8.760;2023-08-17T00:15:33;17.50;99.90
20208;DHT22;10263;48.716;8.760;2023-08-17T00:18:00;17.50;99.90
20208;DHT22;10263;48.716;8.760;2023-08-17T00:20:26;17.50;99.90
20208;DHT22;10263;48.716;8.760;2023-08-17T00:22:55;17.50;99.90
20208;DHT22;10263;48.716;8.760;2023-08-17T00:25:21;17.50;99.90
20208;DHT22;10263;48.716;8.760;2023-08-17T00:27:49;17.40;99.90
20208;DHT22;10263;48.716;8.760;2023-08-17T00:30:16;17.40;99.90
20208;DHT22;10263;48.716;8.760;2023-08-17T00:32:43;17.40;99.90
20208;DHT22;10263;48.716;8.760;2023-08-17T00:35:11;17.40;99.90
20208;DHT22;10263;48.716;8.760;2023-08-17T00:37:37;17.40;99.90
20208;DHT22;10263;48.716;8.760;2023-08-17T00:40:07;17.40;99.90
20208;DHT22;10263;48.716;8.760;2023-08-17T00:42:34;17.30;99.90
20208;DHT22;10263;48.716;8.760;2023-08-17T00:45:01;17.30;99.90
20208;DHT22;10263;48.716;8.760;2023-08-17T00:47:28;17.30;99.90
20208;DHT22;10263;48.716;8.760;2023-08-17T00:49:56;17.30;99.90
20208;DHT22;10263;48.716;8.760;2023-08-17T00:52:24;17.20;99.90
20208;DHT22;10263;48.716;8.760;2023-08-17T00:54:51;17.20;99.90
20208;DHT22;10263;48.716;8.760;2023-08-17T00:57:20;17.20;99.90
20208;DHT22;10263;48.716;8.760;2023-08-17T00:59:47;17.20;99.90
20208;DHT22;10263;48.716;8.760;2023-08-17T01:02:14;17.20;99.90
20208;DHT22;10263;48.716;8.760;2023-08-17T01:04:41;17.10;99.90
20208;DHT22;10263;48.716;8.760;2023-08-17T01:07:08;17.10;99.90
20208;DHT22;10263;48.716;8.760;2023-08-17T01:09:35;17.10;99.90
20208;DHT22;10263;48.716;8.760;2023-08-17T01:12:07;17.10;99.90
20208;DHT22;10263;48.716;8.760;2023-08-17T01:15:05;17.10;99.90
20208;DHT22;10263;48.716;8.760;2023-08-17T01:17:42;17.10;99.90
20208;DHT22;10263;48.716;8.760;2023-08-17T01:20:10;17.00;99.90
20208;DHT22;10263;48.716;8.760;2023-08-17T01:22:41;17.00;99.90
20208;DHT22;10263;48.716;8.760;2023-08-17T01:25:09;16.90;99.90
20208;DHT22;10263;48.716;8.760;2023-08-17T01:27:38;17.00;99.90
20208;DHT22;10263;48.716;8.760;2023-08-17T01:30:07;16.90;99.90
20208;DHT22;10263;48.716;8.760;2023-08-17T01:32:37;16.90;99.90
20208;DHT22;10263;48.716;8.760;2023-08-17T01:35:11;16.90;99.90
20208;DHT22;10263;48.716;8.760;2023-08-17T01:37:42;16.90;99.90
20208;DHT22;10263;48.716;8.760;2023-08-17T01:40:12;16.90;99.90
20208;DHT22;10263;48.716;8.760;2023-08-17T01:42:41;17.00;99.90
20208;DHT22;10263;48.716;8.760;2023-08-17T01:45:09;17.00;99.90
20208;DHT22;10263;48.716;8.760;2023-08-17T01:47:37;18.40;99.90
20208;DHT22;10263;48.716;8.760;2023-08-17T01:50:04;17.00;99.90
20208;DHT22;10263;48.716;8.760;2023-08-17T01:52:31;17.00;99.90
20208;DHT22;10263;48.716;8.760;2023-08-17T01:54:58;17.00;99.90
20208;DHT22;10263;48.716;8.760;2023-08-17T01:57:26;17.10;99.90
20208;DHT22;10263;48.716;8.760;2023-08-17T01:59:53;17.00;99.90
20208;DHT22;10263;48.716;8.760;2023-08-17T02:02:20;17.00;99.90
20208;DHT22;10263;48.716;8.760;2023-08-17T02:04:49;17.00;99.90
20208;DHT22;10263;48.716;8.760;2023-08-17T02:07:15;17.00;99.90
20208;DHT22;10263;48.716;8.760;2023-08-17T02:09:42;16.90;99.90
20208;DHT22;10263;48.716;8.760;2023-08-17T02:12:09;16.90;99.90
20208;DHT22;10263;48.716;8.760;2023-08-17T02:14:37;17.00;99.90
20208;DHT22;10263;48.716;8.760;2023-08-17T02:17:04;17.00;99.90
20208;DHT22;10263;48.716;8.760;2023-08-17T02:19:32;17.00;99.90
20208;DHT22;10263;48.716;8.760;2023-08-17T02:21:59;17.00;99.90
20208;DHT22;10263;48.716;8.760;2023-08-17T02:24:26;17.00;99.90
20208;DHT22;10263;48.716;8.760;2023-08-17T02:26:52;17.00;99.90
20208;DHT22;10263;48.716;8.760;2023-08-17T02:29:19;17.00;99.90
20208;DHT22;10263;48.716;8.760;2023-08-17T02:31:47;17.00;99.90
20208;DHT22;10263;48.716;8.760;2023-08-17T02:34:14;17.00;99.90
20208;DHT22;10263;48.716;8.760;2023-08-17T02:36:41;17.00;99.90
20208;DHT22;10263;48.716;8.760;2023-08-17T02:39:08;17.00;99.90
20208;DHT22;10263;48.716;8.760;2023-08-17T02:41:35;16.90;99.90
20208;DHT22;10263;48.716;8.760;2023-08-17T02:44:02;16.90;99.90
20208;DHT22;10263;48.716;8.760;2023-08-17T02:46:29;16.90;99.90
20208;DHT22;10263;48.716;8.760;2023-08-17T02:48:57;17.00;99.90
20208;DHT22;10263;48.716;8.760;2023-08-17T02:51:24;17.00;99.90
20208;DHT22;10263;48.716;8.760;2023-08-17T02:53:51;16.90;99.90
20208;DHT22;10263;48.716;8.760;2023-08-17T02:56:18;16.90;99.90
20208;DHT22;10263;48.716;8.760;2023-08-17T02:58:44;16.90;99.90
20208;DHT22;10263;48.716;8.760;2023-08-17T03:01:11;16.90;99.90
20208;DHT22;10263;48.716;8.760;2023-08-17T03:03:38;16.90;99.90
20208;DHT22;10263;48.716;8.760;2023-08-17T03:06:07;16.90;99.90
20208;DHT22;10263;48.716;8.760;2023-08-17T03:08:34;16.80;99.90
20208;DHT22;10263;48.716;8.760;2023-08-17T03:11:00;16.80;99.90
20208;DHT22;10263;48.716;8.760;2023-08-17T03:13:27;16.90;99.90
20208;DHT22;10263;48.716;8.760;2023-08-17T03:15:54;16.80;99.90
20208;DHT22;10263;48.716;8.760;2023-08-17T03:18:21;16.90;99.90
20208;DHT22;10263;48.716;8.760;2023-08-17T03:20:48;16.90;99.90
20208;DHT22;10263;48.716;8.760;2023-08-17T03:23:16;16.80;99.90
20208;DHT22;10263;48.716;8.760;2023-08-17T03:25:43;16.80;99.90
20208;DHT22;10263;48.716;8.760;2023-08-17T03:28:11;14.60;99.90
20208;DHT22;10263;48.716;8.760;2023-08-17T03:30:38;16.70;99.90
20208;DHT22;10263;48.716;8.760;2023-08-17T03:33:05;16.70;99.90
20208;DHT22;10263;48.716;8.760;2023-08-17T03:35:32;16.70;99.90
20208;DHT22;10263;48.716;8.760;2023-08-17T03:37:59;16.70;99.90
20208;DHT22;10263;48.716;8.760;2023-08-17T03:40:27;16.70;99.90
20208;DHT22;10263;48.716;8.760;2023-08-17T03:42:54;16.70;99.90
20208;DHT22;10263;48.716;8.760;2023-08-17T03:45:21;16.70;99.90
20208;DHT22;10263;48.716;8.760;2023-08-17T03:47:50;16.70;99.90
20208;DHT22;10263;48.716;8.760;2023-08-17T03:50:17;16.70;99.90
20208;DHT22;10263;48.716;8.760;2023-08-17T03:52:43;16.70;99.90
20208;DHT22;10263;48.716;8.760;2023-08-17T03:55:10;16.70;99.90
20208;DHT22;10263;48.716;8.760;2023-08-17T03:57:39;16.60;99.90
20208;DHT22;10263;48.716;8.760;2023-08-17T04:00:07;15.70;99.90
20208;DHT22;10263;48.716;8.760;2023-08-17T04:02:41;16.70;99.90
20208;DHT22;10263;48.716;8.760;2023-08-17T04:05:12;16.70;99.90
20208;DHT22;10263;48.716;8.760;2023-08-17T04:07:39;17.00;99.90
20208;DHT22;10263;48.716;8.760;2023-08-17T04:10:06;16.70;99.90
20208;DHT22;10263;48.716;8.760;2023-08-17T04:12:34;16.70;99.90
20208;DHT22;10263;48.716;8.760;2023-08-17T04:15:02;16.70;99.90
20208;DHT22;10263;48.716;8.760;2023-08-17T04:17:30;16.70;99.90
20208;DHT22;10263;48.716;8.760;2023-08-17T04:19:57;16.70;99.90
20208;DHT22;10263;48.716;8.760;2023-08-17T04:22:24;16.70;99.90
20208;DHT22;10263;48.716;8.760;2023-08-17T04:24:51;16.60;99.90
20208;DHT22;10263;48.716;8.760;2023-08-17T04:27:17;16.60;99.90
20208;DHT22;10263;48.716;8.760;2023-08-17T04:29:45;16.60;99.90
20208;DHT22;10263;48.716;8.760;2023-08-17T04:32:15;16.70;99.90
20208;DHT22;10263;48.716;8.760;2023-08-17T04:34:42;16.60;99.90
20208;DHT22;10263;48.716;8.760;2023-08-17T04:37:09;16.70;99.90
20208;DHT22;10263;48.716;8.760;2023-08-17T04:39:36;16.70;99.90
20208;DHT22;10263;48.716;8.760;2023-08-17T04:42:04;16.70;99.90
20208;DHT22;10263;48.716;8.760;2023-08-17T04:44:33;16.70;99.90
20208;DHT22;10263;48.716;8.760;2023-08-17T04:47:00;16.70;99.90
20208;DHT22;10263;48.716;8.760;2023-08-17T04:49:29;16.70;99.90
20208;DHT22;10263;48.716;8.760;2023-08-17T04:51:55;16.70;99.90
20208;DHT22;10263;48.716;8.760;2023-08-17T04:54:22;16.80;99.90
20208;DHT22;10263;48.716;8.760;2023-08-17T04:56:50;16.80;99.90
20208;DHT22;10263;48.716;8.760;2023-08-17T04:59:16;16.70;99.90
20208;DHT22;10263;48.716;8.760;2023-08-17T05:01:43;16.70;99.90
20208;DHT22;10263;48.716;8.760;2023-08-17T05:04:10;16.70;99.90
20208;DHT22;10263;48.716;8.760;2023-08-17T05:06:38;16.70;99.90
20208;DHT22;10263;48.716;8.760;2023-08-17T05:09:06;16.80;99.90
20208;DHT22;10263;48.716;8.760;2023-08-17T05:11:34;16.80;99.90
20208;DHT22;10263;48.716;8.760;2023-08-17T05:14:01;16.80;99.90
20208;DHT22;10263;48.716;8.760;2023-08-17T05:16:28;16.80;99.90
20208;DHT22;10263;48.716;8.760;2023-08-17T05:18:56;16.90;99.90
20208;DHT22;10263;48.716;8.760;2023-08-17T05:21:25;16.80;99.90
20208;DHT22;10263;48.716;8.760;2023-08-17T05:23:53;16.80;99.90
20208;DHT22;10263;48.716;8.760;2023-08-17T05:26:20;16.90;99.90
20208;DHT22;10263;48.716;8.760;2023-08-17T05:28:47;16.90;99.90
20208;DHT22;10263;48.716;8.760;2023-08-17T05:31:13;16.80;99.90
20208;DHT22;10263;48.716;8.760;2023-08-17T05:33:45;16.90;99.90
20208;DHT22;10263;48.716;8.760;2023-08-17T05:36:13;16.80;99.90
20208;DHT22;10263;48.716;8.760;2023-08-17T05:38:40;16.90;99.90
20208;DHT22;10263;48.716;8.760;2023-08-17T05:41:08;16.90;99.90
20208;DHT22;10263;48.716;8.760;2023-08-17T05:43:35;17.00;99.90
20208;DHT22;10263;48.716;8.760;2023-08-17T05:46:02;16.80;99.90
20208;DHT22;10263;48.716;8.760;2023-08-17T05:48:29;16.80;99.90
20208;DHT22;10263;48.716;8.760;2023-08-17T05:50:56;16.90;99.90
20208;DHT22;10263;48.716;8.760;2023-08-17T05:53:23;16.90;99.90
20208;DHT22;10263;48.716;8.760;2023-08-17T05:55:50;16.90;99.90
20208;DHT22;10263;48.716;8.760;2023-08-17T05:58:18;16.80;99.90
20208;DHT22;10263;48.716;8.760;2023-08-17T06:00:45;16.90;99.90
20208;DHT22;10263;48.716;8.760;2023-08-17T06:03:11;16.90;99.90
20208;DHT22;10263;48.716;8.760;2023-08-17T06:05:39;17.00;99.90
20208;DHT22;10263;48.716;8.760;2023-08-17T06:08:06;17.00;99.90
20208;DHT22;10263;48.716;8.760;2023-08-17T06:10:33;17.10;99.90
20208;DHT22;10263;48.716;8.760;2023-08-17T06:12:59;17.10;99.90
20208;DHT22;10263;48.716;8.760;2023-08-17T06:15:28;17.10;99.90
20208;DHT22;10263;48.716;8.760;2023-08-17T06:17:55;17.20;99.90
20208;DHT22;10263;48.716;8.760;2023-08-17T06:20:22;17.20;99.90
20208;DHT22;10263;48.716;8.760;2023-08-17T06:22:49;17.30;99.90
20208;DHT22;10263;48.716;8.760;2023-08-17T06:25:16;17.30;99.90
20208;DHT22;10263;48.716;8.760;2023-08-17T06:27:42;17.30;99.90
20208;DHT22;10263;48.716;8.760;2023-08-17T06:30:11;17.40;99.90
20208;DHT22;10263;48.716;8.760;2023-08-17T06:32:39;17.40;99.90
20208;DHT22;10263;48.716;8.760;2023-08-17T06:35:07;17.40;99.90
20208;DHT22;10263;48.716;8.760;2023-08-17T06:37:34;17.40;99.90
20208;DHT22;10263;48.716;8.760;2023-08-17T06:40:01;17.40;99.90
20208;DHT22;10263;48.716;8.760;2023-08-17T06:42:28;17.40;99.90
20208;DHT22;10263;48.716;8.760;2023-08-17T06:44:55;17.40;99.90
20208;DHT22;10263;48.716;8.760;2023-08-17T06:47:22;17.30;99.90
20208;DHT22;10263;48.716;8.760;2023-08-17T06:49:50;17.40;99.90
20208;DHT22;10263;48.716;8.760;2023-08-17T06:54:52;17.60;99.90
20208;DHT22;10263;48.716;8.760;2023-08-17T06:57:18;17.70;99.90
20208;DHT22;10263;48.716;8.760;2023-08-17T06:59:47;17.80;99.90
20208;DHT22;10263;48.716;8.760;2023-08-17T07:02:14;17.90;99.90
20208;DHT22;10263;48.716;8.760;2023-08-17T07:04:40;18.00;99.90
20208;DHT22;10263;48.716;8.760;2023-08-17T07:07:09;18.10;99.90
20208;DHT22;10263;48.716;8.760;2023-08-17T07:09:35;18.30;99.90
20208;DHT22;10263;48.716;8.760;2023-08-17T07:12:03;18.50;99.90
20208;DHT22;10263;48.716;8.760;2023-08-17T07:14:30;18.80;99.90
20208;DHT22;10263;48.716;8.760;2023-08-17T07:16:56;19.10;99.90
20208;DHT22;10263;48.716;8.760;2023-08-17T07:19:23;19.40;99.90
20208;DHT22;10263;48.716;8.760;2023-08-17T07:21:50;19.90;99.90
20208;DHT22;10263;48.716;8.760;2023-08-17T07:24:18;20.50;99.90
20208;DHT22;10263;48.716;8.760;2023-08-17T07:26:45;20.90;99.90
20208;DHT22;10263;48.716;8.760;2023-08-17T07:29:12;21.70;99.90
20208;DHT22;10263;48.716;8.760;2023-08-17T07:31:39;22.30;99.90
20208;DHT22;10263;48.716;8.760;2023-08-17T07:34:06;22.70;99.90
20208;DHT22;10263;48.716;8.760;2023-08-17T07:36:33;23.10;99.90
20208;DHT22;10263;48.716;8.760;2023-08-17T07:39:03;23.10;99.90
20208;DHT22;10263;48.716;8.760;2023-08-17T07:41:31;23.30;99.90
20208;DHT22;10263;48.716;8.760;2023-08-17T07:43:58;23.50;99.90
20208;DHT22;10263;48.716;8.760;2023-08-17T07:46:25;23.90;99.90
20208;DHT22;10263;48.716;8.760;2023-08-17T07:48:51;24.30;99.90
20208;DHT22;10263;48.716;8.760;2023-08-17T07:51:18;24.50;99.90
20208;DHT22;10263;48.716;8.760;2023-08-17T07:53:45;24.80;99.90
20208;DHT22;10263;48.716;8.760;2023-08-17T07:56:13;25.00;99.90
20208;DHT22;10263;48.716;8.760;2023-08-17T07:58:41;25.40;99.90
20208;DHT22;10263;48.716;8.760;2023-08-17T08:01:07;25.70;99.90
20208;DHT22;10263;48.716;8.760;2023-08-17T08:03:34;25.90;99.90
20208;DHT22;10263;48.716;8.760;2023-08-17T08:06:01;26.20;99.90
20208;DHT22;10263;48.716;8.760;2023-08-17T08:08:28;26.40;99.90
20208;DHT22;10263;48.716;8.760;2023-08-17T08:10:55;26.50;99.90
20208;DHT22;10263;48.716;8.760;2023-08-17T08:13:22;26.60;99.90
20208;DHT22;10263;48.716;8.760;2023-08-17T08:15:50;26.90;99.90
20208;DHT22;10263;48.716;8.760;2023-08-17T08:18:17;27.00;99.90
20208;DHT22;10263;48.716;8.760;2023-08-17T08:20:44;27.20;99.90
20208;DHT22;10263;48.716;8.760;2023-08-17T08:23:11;27.30;99.90
20208;DHT22;10263;48.716;8.760;2023-08-17T08:25:38;27.50;99.90
20208;DHT22;10263;48.716;8.760;2023-08-17T08:28:05;27.60;99.90
20208;DHT22;10263;48.716;8.760;2023-08-17T08:30:32;27.80;99.90
20208;DHT22;10263;48.716;8.760;2023-08-17T08:33:00;27.90;99.90
20208;DHT22;10263;48.716;8.760;2023-08-17T08:35:28;27.90;99.90
20208;DHT22;10263;48.716;8.760;2023-08-17T08:37:55;28.10;99.90
20208;DHT22;10263;48.716;8.760;2023-08-17T08:40:27;28.30;99.90
20208;DHT22;10263;48.716;8.760;2023-08-17T08:42:55;28.50;99.90
20208;DHT22;10263;48.716;8.760;2023-08-17T08:45:23;28.60;99.90
20208;DHT22;10263;48.716;8.760;2023-08-17T08:47:51;28.70;99.90
20208;DHT22;10263;48.716;8.760;2023-08-17T08:50:20;28.90;99.90
20208;DHT22;10263;48.716;8.760;2023-08-17T08:52:53;29.30;99.90
20208;DHT22;10263;48.716;8.760;2023-08-17T08:55:23;29.30;99.90
20208;DHT22;10263;48.716;8.760;2023-08-17T08:57:50;29.40;99.90
20208;DHT22;10263;48.716;8.760;2023-08-17T09:00:18;29.70;99.90
20208;DHT22;10263;48.716;8.760;2023-08-17T09:02:46;30.20;99.90
20208;DHT22;10263;48.716;8.760;2023-08-17T09:05:13;30.10;99.90
20208;DHT22;10263;48.716;8.760;2023-08-17T09:07:42;29.80;99.90
20208;DHT22;10263;48.716;8.760;2023-08-17T09:10:10;29.70;99.90
20208;DHT22;10263;48.716;8.760;2023-08-17T09:12:38;29.20;99.90
20208;DHT22;10263;48.716;8.760;2023-08-17T09:15:06;29.20;99.90
20208;DHT22;10263;48.716;8.760;2023-08-17T09:17:33;29.30;99.90
20208;DHT22;10263;48.716;8.760;2023-08-17T09:20:01;29.20;99.90
20208;DHT22;10263;48.716;8.760;2023-08-17T09:22:37;29.00;99.90
20208;DHT22;10263;48.716;8.760;2023-08-17T09:25:07;28.90;99.90
20208;DHT22;10263;48.716;8.760;2023-08-17T09:27:35;29.00;99.90
20208;DHT22;10263;48.716;8.760;2023-08-17T09:30:03;29.10;99.90
20208;DHT22;10263;48.716;8.760;2023-08-17T09:32:31;29.10;99.90
20208;DHT22;10263;48.716;8.760;2023-08-17T09:35:01;29.10;99.90
20208;DHT22;10263;48.716;8.760;2023-08-17T09:37:27;29.00;99.90
20208;DHT22;10263;48.716;8.760;2023-08-17T09:39:55;28.90;99.90
20208;DHT22;10263;48.716;8.760;2023-08-17T09:42:23;29.30;99.90
20208;DHT22;10263;48.716;8.760;2023-08-17T09:44:51;29.30;99.90
20208;DHT22;10263;48.716;8.760;2023-08-17T09:47:18;29.10;99.90
20208;DHT22;10263;48.716;8.760;2023-08-17T09:49:48;29.20;99.90
20208;DHT22;10263;48.716;8.760;2023-08-17T09:52:15;29.40;99.90
20208;DHT22;10263;48.716;8.760;2023-08-17T09:54:42;29.80;99.90
20208;DHT22;10263;48.716;8.760;2023-08-17T09:57:10;30.30;99.90
20208;DHT22;10263;48.716;8.760;2023-08-17T09:59:38;30.50;99.90
20208;DHT22;10263;48.716;8.760;2023-08-17T10:02:14;30.90;99.90
20208;DHT22;10263;48.716;8.760;2023-08-17T10:04:44;30.90;99.90
20208;DHT22;10263;48.716;8.760;2023-08-17T10:07:12;31.40;99.90
20208;DHT22;10263;48.716;8.760;2023-08-17T10:09:42;31.90;99.90
20208;DHT22;10263;48.716;8.760;2023-08-17T10:12:15;32.50;99.90
20208;DHT22;10263;48.716;8.760;2023-08-17T10:14:49;32.80;99.90
20208;DHT22;10263;48.716;8.760;2023-08-17T10:17:25;33.30;99.90
20208;DHT22;10263;48.716;8.760;2023-08-17T10:19:55;33.80;99.90
20208;DHT22;10263;48.716;8.760;2023-08-17T10:22:27;34.30;99.90
20208;DHT22;10263;48.716;8.760;2023-08-17T10:24:56;34.80;98.90
20208;DHT22;10263;48.716;8.760;2023-08-17T10:27:24;35.10;95.20
20208;DHT22;10263;48.716;8.760;2023-08-17T10:29:53;34.60;95.60
20208;DHT22;10263;48.716;8.760;2023-08-17T10:32:21;33.70;99.00
20208;DHT22;10263;48.716;8.760;2023-08-17T10:34:49;32.50;98.00
20208;DHT22;10263;48.716;8.760;2023-08-17T10:37:17;32.10;99.90
20208;DHT22;10263;48.716;8.760;2023-08-17T10:39:45;31.60;99.30
20208;DHT22;10263;48.716;8.760;2023-08-17T10:42:13;31.40;99.90
20208;DHT22;10263;48.716;8.760;2023-08-17T10:44:44;31.10;99.90
20208;DHT22;10263;48.716;8.760;2023-08-17T10:47:28;31.30;99.90
20208;DHT22;10263;48.716;8.760;2023-08-17T10:49:56;31.60;99.90
20208;DHT22;10263;48.716;8.760;2023-08-17T10:52:28;31.80;99.90
20208;DHT22;10263;48.716;8.760;2023-08-17T10:54:55;31.30;99.90
20208;DHT22;10263;48.716;8.760;2023-08-17T10:57:29;30.50;99.90
20208;DHT22;10263;48.716;8.760;2023-08-17T11:00:19;30.40;99.90
20208;DHT22;10263;48.716;8.760;2023-08-17T11:02:58;29.90;99.90
20208;DHT22;10263;48.716;8.760;2023-08-17T11:05:40;29.90;99.90
20208;DHT22;10263;48.716;8.760;2023-08-17T11:08:07;29.90;99.90
20208;DHT22;10263;48.716;8.760;2023-08-17T11:10:35;29.70;99.90
20208;DHT22;10263;48.716;8.760;2023-08-17T11:13:03;29.90;99.90
20208;DHT22;10263;48.716;8.760;2023-08-17T11:15:36;29.90;99.90
20208;DHT22;10263;48.716;8.760;2023-08-17T11:18:10;30.20;99.90
20208;DHT22;10263;48.716;8.760;2023-08-17T11:20:38;30.60;99.90
20208;DHT22;10263;48.716;8.760;2023-08-17T11:23:06;30.80;99.90
20208;DHT22;10263;48.716;8.760;2023-08-17T11:25:33;30.90;99.90
20208;DHT22;10263;48.716;8.760;2023-08-17T11:28:01;30.90;99.90
20208;DHT22;10263;48.716;8.760;2023-08-17T11:30:28;30.70;99.90
20208;DHT22;10263;48.716;8.760;2023-08-17T11:32:55;30.60;99.90
20208;DHT22;10263;48.716;8.760;2023-08-17T11:35:24;30.60;99.90
20208;DHT22;10263;48.716;8.760;2023-08-17T11:37:51;30.40;99.90
20208;DHT22;10263;48.716;8.760;2023-08-17T11:40:18;30.50;99.90
20208;DHT22;10263;48.716;8.760;2023-08-17T11:42:46;30.50;99.90
20208;DHT22;10263;48.716;8.760;2023-08-17T11:45:13;30.50;99.90
20208;DHT22;10263;48.716;8.760;2023-08-17T11:47:40;30.40;99.90
20208;DHT22;10263;48.716;8.760;2023-08-17T11:50:10;30.20;99.90
20208;DHT22;10263;48.716;8.760;2023-08-17T11:52:38;30.00;99.90
20208;DHT22;10263;48.716;8.760;2023-08-17T11:55:06;29.70;99.90
20208;DHT22;10263;48.716;8.760;2023-08-17T11:57:34;29.70;99.90
20208;DHT22;10263;48.716;8.760;2023-08-17T12:00:02;29.50;99.90
20208;DHT22;10263;48.716;8.760;2023-08-17T12:02:32;29.40;99.90
20208;DHT22;10263;48.716;8.760;2023-08-17T12:05:04;29.20;99.90
20208;DHT22;10263;48.716;8.760;2023-08-17T12:07:32;29.20;99.90
20208;DHT22;10263;48.716;8.760;2023-08-17T12:09:59;28.90;99.90
20208;DHT22;10263;48.716;8.760;2023-08-17T12:12:28;27.00;99.90
20208;DHT22;10263;48.716;8.760;2023-08-17T12:14:56;26.70;99.90
20208;DHT22;10263;48.716;8.760;2023-08-17T12:17:24;26.60;99.90
20208;DHT22;10263;48.716;8.760;2023-08-17T12:19:54;25.70;99.90
20208;DHT22;10263;48.716;8.760;2023-08-17T12:22:24;25.40;99.90
20208;DHT22;10263;48.716;8.760;2023-08-17T12:24:51;25.20;99.90
20208;DHT22;10263;48.716;8.760;2023-08-17T12:27:21;25.10;99.90
20208;DHT22;10263;48.716;8.760;2023-08-17T12:29:49;25.00;99.90
20208;DHT22;10263;48.716;8.760;2023-08-17T12:32:18;25.10;99.90
20208;DHT22;10263;48.716;8.760;2023-08-17T12:34:45;25.10;99.90
20208;DHT22;10263;48.716;8.760;2023-08-17T12:37:17;25.00;99.90
20208;DHT22;10263;48.716;8.760;2023-08-17T12:39:44;24.90;99.90
20208;DHT22;10263;48.716;8.760;2023-08-17T12:42:11;24.70;99.90
20208;DHT22;10263;48.716;8.760;2023-08-17T12:44:41;24.50;99.90
20208;DHT22;10263;48.716;8.760;2023-08-17T12:47:07;24.30;99.90
20208;DHT22;10263;48.716;8.760;2023-08-17T12:49:35;24.20;99.90
20208;DHT22;10263;48.716;8.760;2023-08-17T12:54:37;24.00;99.90
20208;DHT22;10263;48.716;8.760;2023-08-17T12:57:04;24.00;99.90
20208;DHT22;10263;48.716;8.760;2023-08-17T12:59:31;23.90;99.90
20208;DHT22;10263;48.716;8.760;2023-08-17T13:01:59;23.80;99.90
20208;DHT22;10263;48.716;8.760;2023-08-17T13:04:26;23.60;99.90
20208;DHT22;10263;48.716;8.760;2023-08-17T13:06:53;23.60;99.90
20208;DHT22;10263;48.716;8.760;2023-08-17T13:09:21;23.70;99.90
20208;DHT22;10263;48.716;8.760;2023-08-17T13:11:47;23.70;99.90
20208;DHT22;10263;48.716;8.760;2023-08-17T13:14:15;23.80;99.90
20208;DHT22;10263;48.716;8.760;2023-08-17T13:16:42;23.70;99.90
20208;DHT22;10263;48.716;8.760;2023-08-17T13:19:10;23.60;99.90
20208;DHT22;10263;48.716;8.760;2023-08-17T13:21:37;23.60;99.90
20208;DHT22;10263;48.716;8.760;2023-08-17T13:24:04;23.70;99.90
20208;DHT22;10263;48.716;8.760;2023-08-17T13:26:32;23.70;99.90
20208;DHT22;10263;48.716;8.760;2023-08-17T13:28:58;23.70;99.90
20208;DHT22;10263;48.716;8.760;2023-08-17T13:31:25;23.70;99.90
20208;DHT22;10263;48.716;8.760;2023-08-17T13:33:52;23.70;99.90
20208;DHT22;10263;48.716;8.760;2023-08-17T13:36:20;23.70;99.90
20208;DHT22;10263;48.716;8.760;2023-08-17T13:38:47;23.80;99.90
20208;DHT22;10263;48.716;8.760;2023-08-17T13:41:14;22.30;99.90
20208;DHT22;10263;48.716;8.760;2023-08-17T13:43:41;23.80;99.90
20208;DHT22;10263;48.716;8.760;2023-08-17T13:46:08;23.90;99.90
20208;DHT22;10263;48.716;8.760;2023-08-17T13:48:35;23.80;99.90
20208;DHT22;10263;48.716;8.760;2023-08-17T13:51:04;23.80;99.90
20208;DHT22;10263;48.716;8.760;2023-08-17T13:53:32;23.90;99.90
20208;DHT22;10263;48.716;8.760;2023-08-17T13:55:59;23.80;99.90
20208;DHT22;10263;48.716;8.760;2023-08-17T13:58:25;23.70;99.90
20208;DHT22;10263;48.716;8.760;2023-08-17T14:00:52;23.60;99.90
20208;DHT22;10263;48.716;8.760;2023-08-17T14:03:19;23.80;99.90
20208;DHT22;10263;48.716;8.760;2023-08-17T14:05:46;23.80;99.90
20208;DHT22;10263;48.716;8.760;2023-08-17T14:08:13;23.80;99.90
20208;DHT22;10263;48.716;8.760;2023-08-17T14:10:41;23.80;99.90
20208;DHT22;10263;48.716;8.760;2023-08-17T14:13:08;23.90;99.90
20208;DHT22;10263;48.716;8.760;2023-08-17T14:15:34;24.00;99.90
20208;DHT22;10263;48.716;8.760;2023-08-17T14:18:01;24.10;99.90
20208;DHT22;10263;48.716;8.760;2023-08-17T14:20:29;24.20;99.90
20208;DHT22;10263;48.716;8.760;2023-08-17T14:22:56;24.70;99.90
20208;DHT22;10263;48.716;8.760;2023-08-17T14:25:22;24.70;99.90
20208;DHT22;10263;48.716;8.760;2023-08-17T14:27:51;25.00;99.90
20208;DHT22;10263;48.716;8.760;2023-08-17T14:30:17;24.70;99.90
20208;DHT22;10263;48.716;8.760;2023-08-17T14:32:44;25.60;99.90
20208;DHT22;10263;48.716;8.760;2023-08-17T14:35:11;25.60;99.90
20208;DHT22;10263;48.716;8.760;2023-08-17T14:37:38;25.80;99.90
20208;DHT22;10263;48.716;8.760;2023-08-17T14:40:06;26.00;99.90
20208;DHT22;10263;48.716;8.760;2023-08-17T14:42:33;25.90;99.90
20208;DHT22;10263;48.716;8.760;2023-08-17T14:45:01;26.10;99.90
20208;DHT22;10263;48.716;8.760;2023-08-17T14:47:28;26.00;99.90
20208;DHT22;10263;48.716;8.760;2023-08-17T14:49:54;26.20;99.90
20208;DHT22;10263;48.716;8.760;2023-08-17T14:52:21;26.40;99.90
20208;DHT22;10263;48.716;8.760;2023-08-17T14:54:48;26.40;99.90
20208;DHT22;10263;48.716;8.760;2023-08-17T14:57:15;26.60;99.90
20208;DHT22;10263;48.716;8.760;2023-08-17T14:59:42;26.80;99.90
20208;DHT22;10263;48.716;8.760;2023-08-17T15:02:10;26.90;99.90
20208;DHT22;10263;48.716;8.760;2023-08-17T15:04:39;26.10;99.90
20208;DHT22;10263;48.716;8.760;2023-08-17T15:07:06;27.00;99.90
20208;DHT22;10263;48.716;8.760;2023-08-17T15:09:36;27.10;99.90
20208;DHT22;10263;48.716;8.760;2023-08-17T15:12:03;27.10;99.90
20208;DHT22;10263;48.716;8.760;2023-08-17T15:14:30;27.20;99.90
20208;DHT22;10263;48.716;8.760;2023-08-17T15:16:57;27.30;99.90
20208;DHT22;10263;48.716;8.760;2023-08-17T15:19:25;27.40;99.90
20208;DHT22;10263;48.716;8.760;2023-08-17T15:21:52;27.40;99.90
20208;DHT22;10263;48.716;8.760;2023-08-17T15:24:19;27.50;99.90
20208;DHT22;10263;48.716;8.760;2023-08-17T15:26:46;27.60;99.90
20208;DHT22;10263;48.716;8.760;2023-08-17T15:29:13;27.50;99.90
20208;DHT22;10263;48.716;8.760;2023-08-17T15:31:39;27.50;99.90
20208;DHT22;10263;48.716;8.760;2023-08-17T15:34:06;27.30;99.90
20208;DHT22;10263;48.716;8.760;2023-08-17T15:36:34;27.30;99.90
20208;DHT22;10263;48.716;8.760;2023-08-17T15:39:01;27.30;99.90